sensor_id;sensor_type;location;lat;lon;timestamp;P1;durP1;ratioP1;P2;durP2;ratioP2
8397;SDS011;4236;54.504;9.588;2023-04-29T00:02:27;16.93;;;15.73;;
8397;SDS011;4236;54.504;9.588;2023-04-29T00:04:58;18.37;;;16.77;;
8397;SDS011;4236;54.504;9.588;2023-04-29T00:07:27;17.33;;;15.60;;
8397;SDS011;4236;54.504;9.588;2023-04-29T00:09:54;19.30;;;17.60;;
8397;SDS011;4236;54.504;9.588;2023-04-29T00:12:22;18.30;;;16.77;;
8397;SDS011;4236;54.504;9.588;2023-04-29T00:14:50;22.47;;;16.27;;
8397;SDS011;4236;54.504;9.588;2023-04-29T00:17:17;21.97;;;17.27;;
8397;SDS011;4236;54.504;9.588;2023-04-29T00:19:45;18.80;;;16.90;;
8397;SDS011;4236;54.504;9.588;2023-04-29T00:22:14;22.67;;;17.77;;
8397;SDS011;4236;54.504;9.588;2023-04-29T00:24:42;19.30;;;17.30;;
8397;SDS011;4236;54.504;9.588;2023-04-29T00:27:10;18.47;;;16.93;;
8397;SDS011;4236;54.504;9.588;2023-04-29T00:29:38;19.60;;;18.00;;
8397;SDS011;4236;54.504;9.588;2023-04-29T00:32:05;23.20;;;20.70;;
8397;SDS011;4236;54.504;9.588;2023-04-29T00:34:33;20.53;;;18.83;;
8397;SDS011;4236;54.504;9.588;2023-04-29T00:37:01;20.83;;;18.70;;
8397;SDS011;4236;54.504;9.588;2023-04-29T00:39:30;20.80;;;18.80;;
8397;SDS011;4236;54.504;9.588;2023-04-29T00:41:58;22.27;;;20.27;;
8397;SDS011;4236;54.504;9.588;2023-04-29T00:44:26;22.50;;;20.10;;
8397;SDS011;4236;54.504;9.588;2023-04-29T00:46:54;24.20;;;19.07;;
8397;SDS011;4236;54.504;9.588;2023-04-29T00:49:21;20.30;;;18.30;;
8397;SDS011;4236;54.504;9.588;2023-04-29T00:51:49;20.80;;;18.70;;
8397;SDS011;4236;54.504;9.588;2023-04-29T00:54:17;21.47;;;19.63;;
8397;SDS011;4236;54.504;9.588;2023-04-29T00:56:46;19.23;;;17.43;;
8397;SDS011;4236;54.504;9.588;2023-04-29T00:59:14;22.07;;;18.30;;
8397;SDS011;4236;54.504;9.588;2023-04-29T01:01:42;19.30;;;17.30;;
8397;SDS011;4236;54.504;9.588;2023-04-29T01:04:10;19.10;;;17.50;;
8397;SDS011;4236;54.504;9.588;2023-04-29T01:06:42;22.93;;;18.93;;
8397;SDS011;4236;54.504;9.588;2023-04-29T01:09:26;19.83;;;17.80;;
8397;SDS011;4236;54.504;9.588;2023-04-29T01:12:10;19.73;;;17.80;;
8397;SDS011;4236;54.504;9.588;2023-04-29T01:14:47;19.80;;;18.00;;
8397;SDS011;4236;54.504;9.588;2023-04-29T01:17:22;17.10;;;15.73;;
8397;SDS011;4236;54.504;9.588;2023-04-29T01:19:53;18.90;;;17.30;;
8397;SDS011;4236;54.504;9.588;2023-04-29T01:22:22;18.47;;;16.63;;
8397;SDS011;4236;54.504;9.588;2023-04-29T01:24:51;16.77;;;15.47;;
8397;SDS011;4236;54.504;9.588;2023-04-29T01:27:22;17.07;;;15.77;;
8397;SDS011;4236;54.504;9.588;2023-04-29T01:29:58;17.77;;;16.13;;
8397;SDS011;4236;54.504;9.588;2023-04-29T01:32:32;16.13;;;14.80;;
8397;SDS011;4236;54.504;9.588;2023-04-29T01:35:10;17.57;;;16.07;;
8397;SDS011;4236;54.504;9.588;2023-04-29T01:37:47;18.17;;;16.23;;
8397;SDS011;4236;54.504;9.588;2023-04-29T01:40:25;17.27;;;15.97;;
8397;SDS011;4236;54.504;9.588;2023-04-29T01:43:00;18.23;;;15.90;;
8397;SDS011;4236;54.504;9.588;2023-04-29T01:45:29;18.67;;;16.90;;
8397;SDS011;4236;54.504;9.588;2023-04-29T01:48:00;16.47;;;15.20;;
8397;SDS011;4236;54.504;9.588;2023-04-29T01:50:29;16.83;;;15.33;;
8397;SDS011;4236;54.504;9.588;2023-04-29T01:52:57;18.20;;;16.37;;
8397;SDS011;4236;54.504;9.588;2023-04-29T01:55:26;18.77;;;17.07;;
8397;SDS011;4236;54.504;9.588;2023-04-29T01:57:54;17.83;;;16.30;;
8397;SDS011;4236;54.504;9.588;2023-04-29T02:00:22;16.80;;;15.30;;
8397;SDS011;4236;54.504;9.588;2023-04-29T02:02:50;17.97;;;16.20;;
8397;SDS011;4236;54.504;9.588;2023-04-29T02:05:17;17.10;;;15.40;;
8397;SDS011;4236;54.504;9.588;2023-04-29T02:07:45;17.30;;;15.53;;
8397;SDS011;4236;54.504;9.588;2023-04-29T02:10:13;17.67;;;16.37;;
8397;SDS011;4236;54.504;9.588;2023-04-29T02:12:42;16.87;;;15.57;;
8397;SDS011;4236;54.504;9.588;2023-04-29T02:15:09;18.03;;;16.40;;
8397;SDS011;4236;54.504;9.588;2023-04-29T02:17:37;17.60;;;16.10;;
8397;SDS011;4236;54.504;9.588;2023-04-29T02:20:06;18.13;;;16.70;;
8397;SDS011;4236;54.504;9.588;2023-04-29T02:22:35;17.10;;;15.60;;
8397;SDS011;4236;54.504;9.588;2023-04-29T02:25:03;18.17;;;16.77;;
8397;SDS011;4236;54.504;9.588;2023-04-29T02:27:31;17.60;;;16.13;;
8397;SDS011;4236;54.504;9.588;2023-04-29T02:30:00;17.63;;;16.03;;
8397;SDS011;4236;54.504;9.588;2023-04-29T02:32:29;17.80;;;16.30;;
8397;SDS011;4236;54.504;9.588;2023-04-29T02:34:57;18.90;;;16.77;;
8397;SDS011;4236;54.504;9.588;2023-04-29T02:37:25;21.30;;;17.10;;
8397;SDS011;4236;54.504;9.588;2023-04-29T02:39:53;17.90;;;16.40;;
8397;SDS011;4236;54.504;9.588;2023-04-29T02:42:21;18.33;;;16.93;;
8397;SDS011;4236;54.504;9.588;2023-04-29T02:44:48;18.20;;;16.50;;
8397;SDS011;4236;54.504;9.588;2023-04-29T02:47:17;17.57;;;16.13;;
8397;SDS011;4236;54.504;9.588;2023-04-29T02:49:45;16.10;;;14.60;;
8397;SDS011;4236;54.504;9.588;2023-04-29T02:52:13;16.63;;;15.23;;
8397;SDS011;4236;54.504;9.588;2023-04-29T02:54:42;18.97;;;17.07;;
8397;SDS011;4236;54.504;9.588;2023-04-29T02:57:10;17.00;;;15.50;;
8397;SDS011;4236;54.504;9.588;2023-04-29T02:59:37;20.17;;;16.40;;
8397;SDS011;4236;54.504;9.588;2023-04-29T03:02:05;16.60;;;15.10;;
8397;SDS011;4236;54.504;9.588;2023-04-29T03:04:34;16.70;;;15.30;;
8397;SDS011;4236;54.504;9.588;2023-04-29T03:07:02;15.93;;;14.73;;
8397;SDS011;4236;54.504;9.588;2023-04-29T03:09:30;17.50;;;16.30;;
8397;SDS011;4236;54.504;9.588;2023-04-29T03:11:58;15.97;;;14.87;;
8397;SDS011;4236;54.504;9.588;2023-04-29T03:14:26;16.43;;;15.20;;
8397;SDS011;4236;54.504;9.588;2023-04-29T03:16:53;17.60;;;15.83;;
8397;SDS011;4236;54.504;9.588;2023-04-29T03:19:22;16.73;;;15.40;;
8397;SDS011;4236;54.504;9.588;2023-04-29T03:21:51;16.37;;;15.10;;
8397;SDS011;4236;54.504;9.588;2023-04-29T03:24:19;17.40;;;15.87;;
8397;SDS011;4236;54.504;9.588;2023-04-29T03:26:47;16.30;;;15.20;;
8397;SDS011;4236;54.504;9.588;2023-04-29T03:29:14;16.37;;;15.07;;
8397;SDS011;4236;54.504;9.588;2023-04-29T03:31:42;17.37;;;16.13;;
8397;SDS011;4236;54.504;9.588;2023-04-29T03:34:10;17.40;;;16.30;;
8397;SDS011;4236;54.504;9.588;2023-04-29T03:36:39;18.20;;;16.70;;
8397;SDS011;4236;54.504;9.588;2023-04-29T03:39:08;17.50;;;16.10;;
8397;SDS011;4236;54.504;9.588;2023-04-29T03:41:37;18.33;;;16.77;;
8397;SDS011;4236;54.504;9.588;2023-04-29T03:44:04;18.40;;;16.70;;
8397;SDS011;4236;54.504;9.588;2023-04-29T03:46:32;18.63;;;16.73;;
8397;SDS011;4236;54.504;9.588;2023-04-29T03:49:00;19.37;;;17.47;;
8397;SDS011;4236;54.504;9.588;2023-04-29T03:51:28;18.73;;;17.10;;
8397;SDS011;4236;54.504;9.588;2023-04-29T03:53:55;18.37;;;16.90;;
8397;SDS011;4236;54.504;9.588;2023-04-29T03:56:25;19.33;;;17.63;;
8397;SDS011;4236;54.504;9.588;2023-04-29T03:58:53;19.63;;;17.87;;
8397;SDS011;4236;54.504;9.588;2023-04-29T04:01:21;18.57;;;16.97;;
8397;SDS011;4236;54.504;9.588;2023-04-29T04:03:48;19.50;;;17.83;;
8397;SDS011;4236;54.504;9.588;2023-04-29T04:06:16;19.27;;;17.43;;
8397;SDS011;4236;54.504;9.588;2023-04-29T04:08:44;18.20;;;16.70;;
8397;SDS011;4236;54.504;9.588;2023-04-29T04:11:12;18.57;;;17.07;;
8397;SDS011;4236;54.504;9.588;2023-04-29T04:13:41;19.07;;;17.37;;
8397;SDS011;4236;54.504;9.588;2023-04-29T04:16:09;20.40;;;18.60;;
8397;SDS011;4236;54.504;9.588;2023-04-29T04:18:37;19.83;;;17.90;;
8397;SDS011;4236;54.504;9.588;2023-04-29T04:21:05;19.20;;;17.57;;
8397;SDS011;4236;54.504;9.588;2023-04-29T04:23:33;19.20;;;17.47;;
8397;SDS011;4236;54.504;9.588;2023-04-29T04:26:01;19.30;;;17.50;;
8397;SDS011;4236;54.504;9.588;2023-04-29T04:28:29;16.93;;;15.70;;
8397;SDS011;4236;54.504;9.588;2023-04-29T04:30:58;20.73;;;18.60;;
8397;SDS011;4236;54.504;9.588;2023-04-29T04:33:26;19.23;;;17.73;;
8397;SDS011;4236;54.504;9.588;2023-04-29T04:35:53;19.50;;;17.80;;
8397;SDS011;4236;54.504;9.588;2023-04-29T04:38:22;19.70;;;17.80;;
8397;SDS011;4236;54.504;9.588;2023-04-29T04:40:50;19.37;;;17.87;;
8397;SDS011;4236;54.504;9.588;2023-04-29T04:43:18;20.30;;;18.53;;
8397;SDS011;4236;54.504;9.588;2023-04-29T04:45:46;19.43;;;17.63;;
8397;SDS011;4236;54.504;9.588;2023-04-29T04:48:15;19.80;;;18.30;;
8397;SDS011;4236;54.504;9.588;2023-04-29T04:50:42;20.30;;;18.43;;
8397;SDS011;4236;54.504;9.588;2023-04-29T04:53:10;20.27;;;18.57;;
8397;SDS011;4236;54.504;9.588;2023-04-29T04:55:38;19.33;;;17.47;;
8397;SDS011;4236;54.504;9.588;2023-04-29T04:58:06;20.00;;;18.20;;
8397;SDS011;4236;54.504;9.588;2023-04-29T05:00:33;18.03;;;16.53;;
8397;SDS011;4236;54.504;9.588;2023-04-29T05:03:01;21.50;;;19.50;;
8397;SDS011;4236;54.504;9.588;2023-04-29T05:05:31;19.17;;;17.57;;
8397;SDS011;4236;54.504;9.588;2023-04-29T05:07:59;18.80;;;17.20;;
8397;SDS011;4236;54.504;9.588;2023-04-29T05:10:28;18.47;;;16.77;;
8397;SDS011;4236;54.504;9.588;2023-04-29T05:12:55;17.53;;;16.20;;
8397;SDS011;4236;54.504;9.588;2023-04-29T05:15:23;18.37;;;16.50;;
8397;SDS011;4236;54.504;9.588;2023-04-29T05:17:53;18.63;;;17.00;;
8397;SDS011;4236;54.504;9.588;2023-04-29T05:20:20;18.10;;;16.40;;
8397;SDS011;4236;54.504;9.588;2023-04-29T05:22:49;20.83;;;16.70;;
8397;SDS011;4236;54.504;9.588;2023-04-29T05:25:17;19.23;;;17.57;;
8397;SDS011;4236;54.504;9.588;2023-04-29T05:27:45;17.77;;;16.23;;
8397;SDS011;4236;54.504;9.588;2023-04-29T05:30:13;17.67;;;16.10;;
8397;SDS011;4236;54.504;9.588;2023-04-29T05:32:41;19.27;;;17.57;;
8397;SDS011;4236;54.504;9.588;2023-04-29T05:35:09;19.10;;;17.20;;
8397;SDS011;4236;54.504;9.588;2023-04-29T05:37:39;18.60;;;16.93;;
8397;SDS011;4236;54.504;9.588;2023-04-29T05:40:08;17.47;;;15.73;;
8397;SDS011;4236;54.504;9.588;2023-04-29T05:42:36;18.70;;;16.70;;
8397;SDS011;4236;54.504;9.588;2023-04-29T05:45:04;17.77;;;16.10;;
8397;SDS011;4236;54.504;9.588;2023-04-29T05:47:33;18.00;;;16.23;;
8397;SDS011;4236;54.504;9.588;2023-04-29T05:50:00;18.87;;;17.03;;
8397;SDS011;4236;54.504;9.588;2023-04-29T05:52:28;16.33;;;15.00;;
8397;SDS011;4236;54.504;9.588;2023-04-29T05:54:57;16.80;;;15.30;;
8397;SDS011;4236;54.504;9.588;2023-04-29T05:57:27;17.43;;;15.93;;
8397;SDS011;4236;54.504;9.588;2023-04-29T05:59:58;15.80;;;14.77;;
8397;SDS011;4236;54.504;9.588;2023-04-29T06:02:26;16.20;;;14.80;;
8397;SDS011;4236;54.504;9.588;2023-04-29T06:04:54;15.70;;;14.40;;
8397;SDS011;4236;54.504;9.588;2023-04-29T06:07:22;16.33;;;15.20;;
8397;SDS011;4236;54.504;9.588;2023-04-29T06:09:52;15.83;;;14.70;;
8397;SDS011;4236;54.504;9.588;2023-04-29T06:12:22;16.77;;;15.20;;
8397;SDS011;4236;54.504;9.588;2023-04-29T06:14:51;16.67;;;15.07;;
8397;SDS011;4236;54.504;9.588;2023-04-29T06:17:19;17.17;;;15.53;;
8397;SDS011;4236;54.504;9.588;2023-04-29T06:19:46;14.90;;;13.90;;
8397;SDS011;4236;54.504;9.588;2023-04-29T06:22:14;15.10;;;13.77;;
8397;SDS011;4236;54.504;9.588;2023-04-29T06:24:42;16.50;;;15.10;;
8397;SDS011;4236;54.504;9.588;2023-04-29T06:27:10;16.40;;;15.17;;
8397;SDS011;4236;54.504;9.588;2023-04-29T06:29:40;17.63;;;15.83;;
8397;SDS011;4236;54.504;9.588;2023-04-29T06:32:09;16.37;;;14.97;;
8397;SDS011;4236;54.504;9.588;2023-04-29T06:34:39;15.00;;;13.73;;
8397;SDS011;4236;54.504;9.588;2023-04-29T06:37:06;14.40;;;13.33;;
8397;SDS011;4236;54.504;9.588;2023-04-29T06:39:34;21.67;;;14.33;;
8397;SDS011;4236;54.504;9.588;2023-04-29T06:42:02;15.00;;;13.90;;
8397;SDS011;4236;54.504;9.588;2023-04-29T06:44:30;14.77;;;13.57;;
8397;SDS011;4236;54.504;9.588;2023-04-29T06:46:57;13.73;;;12.50;;
8397;SDS011;4236;54.504;9.588;2023-04-29T06:49:27;14.27;;;13.10;;
8397;SDS011;4236;54.504;9.588;2023-04-29T06:51:55;15.07;;;13.97;;
8397;SDS011;4236;54.504;9.588;2023-04-29T06:54:22;15.03;;;13.90;;
8397;SDS011;4236;54.504;9.588;2023-04-29T06:56:50;16.03;;;14.60;;
8397;SDS011;4236;54.504;9.588;2023-04-29T06:59:18;14.90;;;13.70;;
8397;SDS011;4236;54.504;9.588;2023-04-29T07:01:46;14.43;;;13.13;;
8397;SDS011;4236;54.504;9.588;2023-04-29T07:04:15;15.27;;;13.97;;
8397;SDS011;4236;54.504;9.588;2023-04-29T07:06:44;14.27;;;13.07;;
8397;SDS011;4236;54.504;9.588;2023-04-29T07:09:12;14.27;;;13.00;;
8397;SDS011;4236;54.504;9.588;2023-04-29T07:11:40;14.83;;;12.53;;
8397;SDS011;4236;54.504;9.588;2023-04-29T07:14:08;14.43;;;13.43;;
8397;SDS011;4236;54.504;9.588;2023-04-29T07:16:36;13.13;;;12.03;;
8397;SDS011;4236;54.504;9.588;2023-04-29T07:19:03;12.57;;;11.67;;
8397;SDS011;4236;54.504;9.588;2023-04-29T07:21:31;12.93;;;11.80;;
8397;SDS011;4236;54.504;9.588;2023-04-29T07:24:00;13.20;;;12.10;;
8397;SDS011;4236;54.504;9.588;2023-04-29T07:26:30;13.40;;;12.20;;
8397;SDS011;4236;54.504;9.588;2023-04-29T07:28:57;13.03;;;11.80;;
8397;SDS011;4236;54.504;9.588;2023-04-29T07:31:25;13.87;;;12.67;;
8397;SDS011;4236;54.504;9.588;2023-04-29T07:33:53;13.23;;;11.90;;
8397;SDS011;4236;54.504;9.588;2023-04-29T07:36:22;12.93;;;11.60;;
8397;SDS011;4236;54.504;9.588;2023-04-29T07:38:50;13.70;;;12.50;;
8397;SDS011;4236;54.504;9.588;2023-04-29T07:41:19;13.70;;;12.60;;
8397;SDS011;4236;54.504;9.588;2023-04-29T07:43:47;13.70;;;11.70;;
8397;SDS011;4236;54.504;9.588;2023-04-29T07:46:15;13.90;;;11.83;;
8397;SDS011;4236;54.504;9.588;2023-04-29T07:48:43;12.80;;;11.60;;
8397;SDS011;4236;54.504;9.588;2023-04-29T07:51:11;13.60;;;12.40;;
8397;SDS011;4236;54.504;9.588;2023-04-29T07:53:40;14.00;;;12.60;;
8397;SDS011;4236;54.504;9.588;2023-04-29T07:56:08;14.30;;;12.90;;
8397;SDS011;4236;54.504;9.588;2023-04-29T07:58:37;12.97;;;11.87;;
8397;SDS011;4236;54.504;9.588;2023-04-29T08:01:05;13.87;;;12.47;;
8397;SDS011;4236;54.504;9.588;2023-04-29T08:03:33;12.73;;;11.63;;
8397;SDS011;4236;54.504;9.588;2023-04-29T08:06:06;13.80;;;12.40;;
8397;SDS011;4236;54.504;9.588;2023-04-29T08:08:34;13.93;;;12.60;;
8397;SDS011;4236;54.504;9.588;2023-04-29T08:11:01;12.97;;;11.87;;
8397;SDS011;4236;54.504;9.588;2023-04-29T08:13:29;12.83;;;11.83;;
8397;SDS011;4236;54.504;9.588;2023-04-29T08:15:58;13.10;;;11.50;;
8397;SDS011;4236;54.504;9.588;2023-04-29T08:18:26;12.60;;;11.43;;
8397;SDS011;4236;54.504;9.588;2023-04-29T08:20:54;12.13;;;10.93;;
8397;SDS011;4236;54.504;9.588;2023-04-29T08:23:22;12.50;;;11.27;;
8397;SDS011;4236;54.504;9.588;2023-04-29T08:25:50;13.30;;;12.00;;
8397;SDS011;4236;54.504;9.588;2023-04-29T08:28:18;11.67;;;10.67;;
8397;SDS011;4236;54.504;9.588;2023-04-29T08:30:46;13.47;;;11.80;;
8397;SDS011;4236;54.504;9.588;2023-04-29T08:33:16;11.00;;;10.10;;
8397;SDS011;4236;54.504;9.588;2023-04-29T08:35:44;12.63;;;11.43;;
8397;SDS011;4236;54.504;9.588;2023-04-29T08:38:12;12.80;;;11.63;;
8397;SDS011;4236;54.504;9.588;2023-04-29T08:40:40;11.93;;;10.93;;
8397;SDS011;4236;54.504;9.588;2023-04-29T08:43:11;12.70;;;11.43;;
8397;SDS011;4236;54.504;9.588;2023-04-29T08:45:40;12.37;;;11.10;;
8397;SDS011;4236;54.504;9.588;2023-04-29T08:48:09;12.30;;;11.27;;
8397;SDS011;4236;54.504;9.588;2023-04-29T08:50:39;12.80;;;11.40;;
8397;SDS011;4236;54.504;9.588;2023-04-29T08:53:08;13.27;;;12.03;;
8397;SDS011;4236;54.504;9.588;2023-04-29T08:55:39;12.40;;;11.30;;
8397;SDS011;4236;54.504;9.588;2023-04-29T08:58:09;14.93;;;11.70;;
8397;SDS011;4236;54.504;9.588;2023-04-29T09:00:37;11.77;;;10.77;;
8397;SDS011;4236;54.504;9.588;2023-04-29T09:03:10;11.97;;;10.90;;
8397;SDS011;4236;54.504;9.588;2023-04-29T09:05:42;12.30;;;11.30;;
8397;SDS011;4236;54.504;9.588;2023-04-29T09:08:15;12.27;;;11.17;;
8397;SDS011;4236;54.504;9.588;2023-04-29T09:10:43;11.87;;;10.87;;
8397;SDS011;4236;54.504;9.588;2023-04-29T09:13:21;11.80;;;10.60;;
8397;SDS011;4236;54.504;9.588;2023-04-29T09:15:50;12.17;;;10.63;;
8397;SDS011;4236;54.504;9.588;2023-04-29T09:21:21;10.40;;;9.60;;
8397;SDS011;4236;54.504;9.588;2023-04-29T09:23:52;10.27;;;8.97;;
8397;SDS011;4236;54.504;9.588;2023-04-29T09:26:21;9.80;;;8.90;;
8397;SDS011;4236;54.504;9.588;2023-04-29T09:29:04;10.37;;;9.27;;
8397;SDS011;4236;54.504;9.588;2023-04-29T09:31:33;9.80;;;8.70;;
8397;SDS011;4236;54.504;9.588;2023-04-29T09:34:02;9.50;;;8.60;;
8397;SDS011;4236;54.504;9.588;2023-04-29T09:39:24;8.80;;;8.10;;
8397;SDS011;4236;54.504;9.588;2023-04-29T09:41:58;8.53;;;7.83;;
8397;SDS011;4236;54.504;9.588;2023-04-29T09:44:29;10.07;;;9.03;;
8397;SDS011;4236;54.504;9.588;2023-04-29T09:47:00;11.10;;;10.03;;
8397;SDS011;4236;54.504;9.588;2023-04-29T09:49:29;8.53;;;7.60;;
8397;SDS011;4236;54.504;9.588;2023-04-29T09:52:02;8.83;;;8.13;;
8397;SDS011;4236;54.504;9.588;2023-04-29T09:54:32;9.00;;;8.13;;
8397;SDS011;4236;54.504;9.588;2023-04-29T09:57:01;9.50;;;8.60;;
8397;SDS011;4236;54.504;9.588;2023-04-29T09:59:31;10.40;;;9.03;;
8397;SDS011;4236;54.504;9.588;2023-04-29T10:02:01;10.70;;;9.73;;
8397;SDS011;4236;54.504;9.588;2023-04-29T10:04:34;10.87;;;9.77;;
8397;SDS011;4236;54.504;9.588;2023-04-29T10:07:08;9.53;;;8.47;;
8397;SDS011;4236;54.504;9.588;2023-04-29T10:09:36;9.87;;;9.07;;
8397;SDS011;4236;54.504;9.588;2023-04-29T10:12:06;10.07;;;9.27;;
8397;SDS011;4236;54.504;9.588;2023-04-29T10:14:36;11.33;;;10.27;;
8397;SDS011;4236;54.504;9.588;2023-04-29T10:17:10;9.80;;;8.90;;
8397;SDS011;4236;54.504;9.588;2023-04-29T10:19:45;10.80;;;9.90;;
8397;SDS011;4236;54.504;9.588;2023-04-29T10:22:21;12.47;;;10.20;;
8397;SDS011;4236;54.504;9.588;2023-04-29T10:24:55;10.03;;;9.00;;
8397;SDS011;4236;54.504;9.588;2023-04-29T10:27:25;10.67;;;9.60;;
8397;SDS011;4236;54.504;9.588;2023-04-29T10:29:54;9.30;;;8.40;;
8397;SDS011;4236;54.504;9.588;2023-04-29T10:32:24;9.10;;;8.30;;
8397;SDS011;4236;54.504;9.588;2023-04-29T10:35:09;9.77;;;8.87;;
8397;SDS011;4236;54.504;9.588;2023-04-29T10:37:40;9.50;;;8.70;;
8397;SDS011;4236;54.504;9.588;2023-04-29T10:40:10;9.50;;;8.60;;
8397;SDS011;4236;54.504;9.588;2023-04-29T10:42:42;8.20;;;7.43;;
8397;SDS011;4236;54.504;9.588;2023-04-29T10:45:17;8.90;;;8.10;;
8397;SDS011;4236;54.504;9.588;2023-04-29T10:50:40;7.30;;;6.50;;
8397;SDS011;4236;54.504;9.588;2023-04-29T10:53:24;6.67;;;6.00;;
8397;SDS011;4236;54.504;9.588;2023-04-29T10:55:52;6.00;;;5.70;;
8397;SDS011;4236;54.504;9.588;2023-04-29T10:58:33;5.10;;;4.80;;
8397;SDS011;4236;54.504;9.588;2023-04-29T11:01:03;6.10;;;5.60;;
8397;SDS011;4236;54.504;9.588;2023-04-29T11:03:52;5.50;;;5.00;;
8397;SDS011;4236;54.504;9.588;2023-04-29T11:06:37;6.10;;;5.80;;
8397;SDS011;4236;54.504;9.588;2023-04-29T11:09:08;6.27;;;5.80;;
8397;SDS011;4236;54.504;9.588;2023-04-29T11:11:40;5.43;;;4.93;;
8397;SDS011;4236;54.504;9.588;2023-04-29T11:14:12;5.97;;;5.67;;
8397;SDS011;4236;54.504;9.588;2023-04-29T11:16:49;6.17;;;5.80;;
8397;SDS011;4236;54.504;9.588;2023-04-29T11:19:19;6.63;;;6.00;;
8397;SDS011;4236;54.504;9.588;2023-04-29T11:21:46;6.53;;;5.87;;
8397;SDS011;4236;54.504;9.588;2023-04-29T11:24:15;7.50;;;6.53;;
8397;SDS011;4236;54.504;9.588;2023-04-29T11:26:43;7.47;;;6.77;;
8397;SDS011;4236;54.504;9.588;2023-04-29T11:29:11;6.73;;;6.07;;
8397;SDS011;4236;54.504;9.588;2023-04-29T11:31:39;5.70;;;5.20;;
8397;SDS011;4236;54.504;9.588;2023-04-29T11:34:07;5.73;;;5.33;;
8397;SDS011;4236;54.504;9.588;2023-04-29T11:36:35;5.83;;;5.43;;
8397;SDS011;4236;54.504;9.588;2023-04-29T11:39:03;5.60;;;5.20;;
8397;SDS011;4236;54.504;9.588;2023-04-29T11:41:32;7.00;;;6.50;;
8397;SDS011;4236;54.504;9.588;2023-04-29T11:44:01;6.57;;;5.93;;
8397;SDS011;4236;54.504;9.588;2023-04-29T11:46:30;5.43;;;5.00;;
8397;SDS011;4236;54.504;9.588;2023-04-29T11:48:58;4.97;;;4.53;;
8397;SDS011;4236;54.504;9.588;2023-04-29T11:51:27;4.20;;;4.10;;
8397;SDS011;4236;54.504;9.588;2023-04-29T11:53:55;3.80;;;3.60;;
8397;SDS011;4236;54.504;9.588;2023-04-29T11:56:24;4.20;;;4.00;;
8397;SDS011;4236;54.504;9.588;2023-04-29T11:58:56;4.30;;;4.00;;
8397;SDS011;4236;54.504;9.588;2023-04-29T12:01:26;4.80;;;4.60;;
8397;SDS011;4236;54.504;9.588;2023-04-29T12:03:56;4.23;;;4.03;;
8397;SDS011;4236;54.504;9.588;2023-04-29T12:06:26;4.77;;;4.57;;
8397;SDS011;4236;54.504;9.588;2023-04-29T12:08:57;4.87;;;4.63;;
8397;SDS011;4236;54.504;9.588;2023-04-29T12:11:25;4.77;;;4.50;;
8397;SDS011;4236;54.504;9.588;2023-04-29T12:13:55;5.90;;;5.40;;
8397;SDS011;4236;54.504;9.588;2023-04-29T12:16:23;4.83;;;4.63;;
8397;SDS011;4236;54.504;9.588;2023-04-29T12:18:54;4.60;;;4.40;;
8397;SDS011;4236;54.504;9.588;2023-04-29T12:21:22;4.83;;;4.53;;
8397;SDS011;4236;54.504;9.588;2023-04-29T12:23:50;4.90;;;4.60;;
8397;SDS011;4236;54.504;9.588;2023-04-29T12:26:18;6.80;;;5.37;;
8397;SDS011;4236;54.504;9.588;2023-04-29T12:28:47;5.23;;;4.90;;
8397;SDS011;4236;54.504;9.588;2023-04-29T12:31:21;5.60;;;5.40;;
8397;SDS011;4236;54.504;9.588;2023-04-29T12:33:49;5.80;;;5.60;;
8397;SDS011;4236;54.504;9.588;2023-04-29T12:36:20;6.20;;;5.67;;
8397;SDS011;4236;54.504;9.588;2023-04-29T12:38:49;6.00;;;5.37;;
8397;SDS011;4236;54.504;9.588;2023-04-29T12:41:19;5.90;;;5.50;;
8397;SDS011;4236;54.504;9.588;2023-04-29T12:44:02;6.03;;;5.73;;
8397;SDS011;4236;54.504;9.588;2023-04-29T12:46:36;6.30;;;6.00;;
8397;SDS011;4236;54.504;9.588;2023-04-29T12:49:06;6.10;;;5.60;;
8397;SDS011;4236;54.504;9.588;2023-04-29T12:51:34;7.00;;;6.50;;
8397;SDS011;4236;54.504;9.588;2023-04-29T12:54:03;6.50;;;6.07;;
8397;SDS011;4236;54.504;9.588;2023-04-29T12:56:32;6.50;;;6.10;;
8397;SDS011;4236;54.504;9.588;2023-04-29T12:59:05;6.47;;;5.97;;
8397;SDS011;4236;54.504;9.588;2023-04-29T13:01:33;6.17;;;5.87;;
8397;SDS011;4236;54.504;9.588;2023-04-29T13:04:03;6.00;;;5.50;;
8397;SDS011;4236;54.504;9.588;2023-04-29T13:06:34;5.40;;;5.10;;
8397;SDS011;4236;54.504;9.588;2023-04-29T13:09:05;5.50;;;5.20;;
8397;SDS011;4236;54.504;9.588;2023-04-29T13:11:42;6.47;;;5.83;;
8397;SDS011;4236;54.504;9.588;2023-04-29T13:14:09;5.83;;;5.43;;
8397;SDS011;4236;54.504;9.588;2023-04-29T13:16:38;6.40;;;6.00;;
8397;SDS011;4236;54.504;9.588;2023-04-29T13:19:06;6.60;;;5.43;;
8397;SDS011;4236;54.504;9.588;2023-04-29T13:21:55;6.60;;;6.00;;
8397;SDS011;4236;54.504;9.588;2023-04-29T13:24:22;10.37;;;5.63;;
8397;SDS011;4236;54.504;9.588;2023-04-29T13:26:50;13.13;;;7.17;;
8397;SDS011;4236;54.504;9.588;2023-04-29T13:29:19;6.00;;;5.50;;
8397;SDS011;4236;54.504;9.588;2023-04-29T13:31:48;5.87;;;5.37;;
8397;SDS011;4236;54.504;9.588;2023-04-29T13:34:16;8.90;;;5.50;;
8397;SDS011;4236;54.504;9.588;2023-04-29T13:36:45;5.30;;;4.73;;
8397;SDS011;4236;54.504;9.588;2023-04-29T13:39:13;5.47;;;4.97;;
8397;SDS011;4236;54.504;9.588;2023-04-29T13:41:40;5.53;;;5.13;;
8397;SDS011;4236;54.504;9.588;2023-04-29T13:44:11;7.77;;;5.23;;
8397;SDS011;4236;54.504;9.588;2023-04-29T13:46:42;5.97;;;5.33;;
8397;SDS011;4236;54.504;9.588;2023-04-29T13:49:14;7.23;;;5.03;;
8397;SDS011;4236;54.504;9.588;2023-04-29T13:52:01;10.03;;;6.13;;
8397;SDS011;4236;54.504;9.588;2023-04-29T13:54:49;10.03;;;5.40;;
8397;SDS011;4236;54.504;9.588;2023-04-29T13:57:38;8.60;;;5.87;;
8397;SDS011;4236;54.504;9.588;2023-04-29T14:00:25;5.07;;;4.67;;
8397;SDS011;4236;54.504;9.588;2023-04-29T14:03:14;7.00;;;5.00;;
8397;SDS011;4236;54.504;9.588;2023-04-29T14:05:45;6.53;;;4.63;;
8397;SDS011;4236;54.504;9.588;2023-04-29T14:08:13;4.47;;;4.17;;
8397;SDS011;4236;54.504;9.588;2023-04-29T14:10:40;4.93;;;4.53;;
8397;SDS011;4236;54.504;9.588;2023-04-29T14:13:08;4.57;;;4.23;;
8397;SDS011;4236;54.504;9.588;2023-04-29T14:15:36;10.30;;;4.63;;
8397;SDS011;4236;54.504;9.588;2023-04-29T14:18:04;5.10;;;4.90;;
8397;SDS011;4236;54.504;9.588;2023-04-29T14:20:34;6.73;;;4.00;;
8397;SDS011;4236;54.504;9.588;2023-04-29T14:23:03;5.63;;;3.80;;
8397;SDS011;4236;54.504;9.588;2023-04-29T14:25:31;8.27;;;4.10;;
8397;SDS011;4236;54.504;9.588;2023-04-29T14:27:59;5.37;;;3.97;;
8397;SDS011;4236;54.504;9.588;2023-04-29T14:30:27;7.43;;;4.17;;
8397;SDS011;4236;54.504;9.588;2023-04-29T14:32:54;3.80;;;3.60;;
8397;SDS011;4236;54.504;9.588;2023-04-29T14:35:22;5.03;;;4.27;;
8397;SDS011;4236;54.504;9.588;2023-04-29T14:37:50;6.50;;;4.90;;
8397;SDS011;4236;54.504;9.588;2023-04-29T14:40:19;5.20;;;4.70;;
8397;SDS011;4236;54.504;9.588;2023-04-29T14:42:47;3.97;;;3.67;;
8397;SDS011;4236;54.504;9.588;2023-04-29T14:45:14;5.80;;;3.90;;
8397;SDS011;4236;54.504;9.588;2023-04-29T14:47:43;6.30;;;4.30;;
8397;SDS011;4236;54.504;9.588;2023-04-29T14:50:12;6.53;;;3.90;;
8397;SDS011;4236;54.504;9.588;2023-04-29T14:52:39;8.60;;;4.40;;
8397;SDS011;4236;54.504;9.588;2023-04-29T14:55:07;3.80;;;3.50;;
8397;SDS011;4236;54.504;9.588;2023-04-29T14:57:36;4.60;;;4.30;;
8397;SDS011;4236;54.504;9.588;2023-04-29T15:00:04;4.63;;;4.23;;
8397;SDS011;4236;54.504;9.588;2023-04-29T15:02:34;4.73;;;4.37;;
8397;SDS011;4236;54.504;9.588;2023-04-29T15:05:01;4.50;;;4.10;;
8397;SDS011;4236;54.504;9.588;2023-04-29T15:07:30;6.23;;;4.33;;
8397;SDS011;4236;54.504;9.588;2023-04-29T15:09:58;4.97;;;4.00;;
8397;SDS011;4236;54.504;9.588;2023-04-29T15:12:26;6.53;;;3.97;;
8397;SDS011;4236;54.504;9.588;2023-04-29T15:14:55;6.43;;;3.93;;
8397;SDS011;4236;54.504;9.588;2023-04-29T15:17:22;4.33;;;3.70;;
8397;SDS011;4236;54.504;9.588;2023-04-29T15:19:50;5.83;;;3.47;;
8397;SDS011;4236;54.504;9.588;2023-04-29T15:22:18;3.47;;;3.23;;